Time;durP1;ratioP1;P1;durP2;ratioP2;P2;SDS_P1;SDS_P2;PMS_P1;PMS_P2;Temp;Humidity;BMP_temperature;BMP_pressure;BME280_temperature;BME280_humidity;BME280_pressure;Samples;Min_cycle;Max_cycle;Signal;HPM_P1;HPM_P2
2021/04/19 00:01:15;;;;;;;8.57;2.30;;;10.10;64.40;;;;;;5005892;28;20017;-73
2021/04/19 00:03:40;;;;;;;3.28;2.08;;;10.00;64.30;;;;;;5023173;28;20076;-73
2021/04/19 00:06:06;;;;;;;5.50;1.80;;;10.00;64.30;;;;;;5023495;28;20040;-73
2021/04/19 00:08:31;;;;;;;5.55;2.20;;;9.90;64.30;;;;;;5022315;28;20024;-73
2021/04/19 00:10:57;;;;;;;4.97;2.25;;;9.90;64.10;;;;;;5023655;28;20014;-73
2021/04/19 00:13:23;;;;;;;3.90;2.20;;;9.90;63.90;;;;;;5023554;28;20024;-73
2021/04/19 00:15:49;;;;;;;4.05;2.30;;;9.90;63.90;;;;;;5023211;28;20017;-73
2021/04/19 00:18:14;;;;;;;5.10;2.25;;;9.80;63.70;;;;;;5023157;28;20076;-73
2021/04/19 00:20:40;;;;;;;6.45;2.60;;;9.80;63.60;;;;;;5023052;28;20040;-73
2021/04/19 00:23:06;;;;;;;5.82;2.38;;;9.80;63.70;;;;;;5005987;28;20093;-73
2021/04/19 00:25:31;;;;;;;8.32;2.30;;;9.80;63.70;;;;;;5023422;28;20014;-73
2021/04/19 00:27:57;;;;;;;6.95;2.45;;;9.70;63.90;;;;;;5005996;28;20017;-73
2021/04/19 00:30:23;;;;;;;4.97;2.50;;;9.70;64.10;;;;;;5025601;28;20014;-73
2021/04/19 00:32:48;;;;;;;4.63;2.20;;;9.60;64.20;;;;;;5023228;28;20013;-73
2021/04/19 00:35:14;;;;;;;6.60;2.28;;;9.60;64.40;;;;;;5023451;28;20018;-73
2021/04/19 00:37:40;;;;;;;4.43;2.30;;;9.50;64.50;;;;;;5006041;28;20020;-73
2021/04/19 00:40:09;;;;;;;4.10;1.98;;;9.50;63.90;;;;;;5025012;28;20099;-73
2021/04/19 00:42:35;;;;;;;4.13;1.85;;;9.50;63.80;;;;;;5028929;28;20014;-73
2021/04/19 00:45:01;;;;;;;4.93;2.10;;;9.50;63.90;;;;;;5022137;28;20334;-72
2021/04/19 00:47:27;;;;;;;3.83;1.80;;;9.50;63.40;;;;;;5003980;28;20010;-71
2021/04/19 00:49:52;;;;;;;5.05;1.80;;;9.50;63.30;;;;;;5003475;28;20011;-72
2021/04/19 00:52:18;;;;;;;4.00;1.75;;;9.50;63.00;;;;;;5021186;28;20018;-72
2021/04/19 00:54:43;;;;;;;5.05;1.70;;;9.50;62.50;;;;;;5003050;28;20022;-72
2021/04/19 00:57:09;;;;;;;3.35;1.65;;;9.40;62.30;;;;;;5019990;28;20042;-72
2021/04/19 00:59:35;;;;;;;4.53;1.85;;;9.40;62.20;;;;;;5028530;28;20014;-72
2021/04/19 01:02:01;;;;;;;3.15;1.52;;;9.40;62.20;;;;;;5024495;28;20037;-72
2021/04/19 01:04:26;;;;;;;3.03;1.70;;;9.30;61.80;;;;;;5017727;28;20291;-72
2021/04/19 01:06:52;;;;;;;6.30;1.92;;;9.30;61.90;;;;;;5027972;28;20010;-72
2021/04/19 01:09:17;;;;;;;4.22;2.10;;;9.30;61.50;;;;;;5007002;28;20006;-72
2021/04/19 01:11:43;;;;;;;3.17;1.60;;;9.30;61.40;;;;;;5019905;28;20020;-72
2021/04/19 01:14:09;;;;;;;5.10;1.67;;;9.30;60.80;;;;;;5009634;28;20073;-72
2021/04/19 01:16:34;;;;;;;5.07;2.53;;;9.30;60.70;;;;;;5026155;28;20052;-72
2021/04/19 01:19:00;;;;;;;3.47;1.73;;;9.30;60.70;;;;;;5026658;28;20013;-72
2021/04/19 01:21:26;;;;;;;3.42;1.60;;;9.20;61.50;;;;;;5025968;28;20006;-72
2021/04/19 01:23:51;;;;;;;3.92;1.48;;;9.20;60.70;;;;;;5006091;28;20022;-72
2021/04/19 01:26:17;;;;;;;3.30;1.80;;;9.20;60.60;;;;;;5016669;28;20118;-72
2021/04/19 01:28:42;;;;;;;3.35;1.50;;;9.10;60.30;;;;;;5009397;28;20014;-72
2021/04/19 01:31:08;;;;;;;4.05;1.83;;;9.10;60.00;;;;;;5009388;28;20016;-72
2021/04/19 01:33:34;;;;;;;3.20;1.77;;;9.20;60.20;;;;;;5009292;28;20181;-72
2021/04/19 01:35:59;;;;;;;5.13;1.63;;;9.10;60.10;;;;;;5026920;28;20136;-72
2021/04/19 01:38:25;;;;;;;4.93;1.60;;;9.10;60.30;;;;;;5026371;28;20045;-72
2021/04/19 01:40:54;;;;;;;4.50;1.70;;;9.00;60.40;;;;;;5022135;28;20011;-72
2021/04/19 01:43:19;;;;;;;4.78;1.73;;;9.00;60.50;;;;;;5006448;28;20108;-72
2021/04/19 01:45:45;;;;;;;4.07;1.80;;;9.00;60.50;;;;;;5005262;28;20251;-72
2021/04/19 01:48:10;;;;;;;4.85;1.80;;;9.00;60.00;;;;;;5006518;28;20036;-72
2021/04/19 01:50:36;;;;;;;4.20;1.55;;;9.00;60.00;;;;;;5024747;28;20925;-72
2021/04/19 01:53:02;;;;;;;3.15;1.50;;;8.90;59.90;;;;;;5026117;28;20018;-72
2021/04/19 01:55:31;;;;;;;2.80;1.50;;;8.90;59.70;;;;;;5008795;28;20267;-72
2021/04/19 01:58:02;;;;;;;8.45;2.28;;;8.90;59.50;;;;;;5008501;28;20042;-72
2021/04/19 02:00:28;;;;;;;3.08;1.38;;;8.90;59.50;;;;;;5024748;28;20026;-71
2021/04/19 02:03:07;;;;;;;3.95;2.00;;;8.80;59.70;;;;;;5025179;28;20037;-72
2021/04/19 02:06:04;;;;;;;3.10;1.60;;;8.80;60.10;;;;;;5026068;28;20006;-72
2021/04/19 02:08:45;;;;;;;4.97;2.38;;;8.70;60.90;;;;;;5007738;28;20010;-73
2021/04/19 02:11:19;;;;;;;4.00;1.67;;;8.70;61.40;;;;;;5003584;28;20018;-73
2021/04/19 02:13:57;;;;;;;2.53;1.40;;;8.60;61.60;;;;;;5008145;28;20017;-73
2021/04/19 02:16:27;;;;;;;3.05;1.60;;;8.50;61.70;;;;;;5027152;28;20334;-73
2021/04/19 02:19:00;;;;;;;3.92;1.85;;;8.40;61.70;;;;;;5009198;28;20018;-73
2021/04/19 02:21:38;;;;;;;5.88;1.70;;;8.40;62.80;;;;;;5024308;28;20025;-72
2021/04/19 02:24:06;;;;;;;2.83;1.58;;;8.30;62.10;;;;;;5030676;28;20072;-72
2021/04/19 02:26:33;;;;;;;6.18;1.45;;;8.30;62.20;;;;;;5030365;28;20199;-72
2021/04/19 02:29:03;;;;;;;4.35;1.70;;;8.30;62.50;;;;;;5014443;28;20009;-72
2021/04/19 02:31:32;;;;;;;2.70;1.50;;;8.20;62.70;;;;;;5027107;28;20267;-72
2021/04/19 02:33:58;;;;;;;3.05;1.80;;;8.20;62.80;;;;;;4992626;28;20049;-72
2021/04/19 02:36:24;;;;;;;2.75;1.20;;;8.10;62.90;;;;;;5025383;28;20010;-72
2021/04/19 02:38:50;;;;;;;2.72;1.40;;;8.10;62.90;;;;;;5007472;28;20017;-72
2021/04/19 02:41:17;;;;;;;3.08;1.52;;;8.10;62.90;;;;;;5020494;28;20011;-72
2021/04/19 02:43:43;;;;;;;3.50;1.52;;;8.00;62.90;;;;;;5021952;28;20033;-72
2021/04/19 02:46:09;;;;;;;3.40;1.58;;;8.00;63.00;;;;;;5025062;28;20002;-72
2021/04/19 02:48:35;;;;;;;4.90;1.50;;;8.00;62.90;;;;;;5007772;28;20034;-72
2021/04/19 02:51:02;;;;;;;4.13;1.58;;;8.00;63.00;;;;;;5023851;28;20053;-72
2021/04/19 02:53:28;;;;;;;1.98;1.30;;;7.90;63.00;;;;;;5024293;28;20021;-72
2021/04/19 02:55:53;;;;;;;6.30;1.58;;;7.90;63.00;;;;;;5007868;28;20077;-72
2021/04/19 02:58:30;;;;;;;3.47;1.30;;;7.90;62.90;;;;;;5001376;28;20070;-72
2021/04/19 03:00:56;;;;;;;2.95;1.40;;;7.90;62.90;;;;;;5004939;28;20236;-72
2021/04/19 03:03:30;;;;;;;2.88;1.52;;;7.80;62.70;;;;;;5004531;28;20030;-72
2021/04/19 03:05:56;;;;;;;3.10;1.40;;;7.80;62.60;;;;;;4988582;28;20013;-72
2021/04/19 03:08:22;;;;;;;4.20;1.75;;;7.80;62.40;;;;;;4988203;28;20014;-72
2021/04/19 03:10:52;;;;;;;3.78;1.60;;;7.90;62.10;;;;;;4988139;28;20002;-72
2021/04/19 03:13:18;;;;;;;3.45;1.80;;;7.90;61.80;;;;;;5005373;28;20025;-72
2021/04/19 03:15:44;;;;;;;6.65;1.67;;;7.90;61.60;;;;;;4988490;28;20010;-72
2021/04/19 03:18:11;;;;;;;4.28;1.55;;;7.90;61.50;;;;;;4988385;28;20335;-72
2021/04/19 03:21:07;;;;;;;3.63;1.60;;;7.90;61.10;;;;;;4982554;28;20069;-72
2021/04/19 03:23:43;;;;;;;3.00;1.45;;;7.90;61.10;;;;;;5017231;28;20053;-72
2021/04/19 03:26:09;;;;;;;3.90;1.45;;;7.90;60.50;;;;;;5019066;28;20011;-72
2021/04/19 03:28:34;;;;;;;4.53;1.70;;;7.90;60.10;;;;;;5015989;28;20077;-72
2021/04/19 03:31:03;;;;;;;3.08;1.48;;;8.00;59.80;;;;;;5003780;28;20006;-72
2021/04/19 03:33:28;;;;;;;4.65;1.48;;;8.00;59.80;;;;;;4987533;28;20247;-72
2021/04/19 03:35:54;;;;;;;5.85;2.00;;;8.00;59.80;;;;;;5003696;28;20006;-72
2021/04/19 03:38:20;;;;;;;7.47;1.60;;;8.00;59.70;;;;;;5002989;28;20081;-72
2021/04/19 03:40:45;;;;;;;3.55;1.38;;;8.00;59.50;;;;;;5003727;28;20097;-72
2021/04/19 03:43:13;;;;;;;2.90;1.10;;;8.00;59.30;;;;;;4992135;28;20028;-72
2021/04/19 03:45:39;;;;;;;2.30;1.40;;;8.00;59.20;;;;;;5007576;28;20017;-72
2021/04/19 03:48:11;;;;;;;3.38;1.48;;;8.00;58.90;;;;;;5003078;28;20011;-72
2021/04/19 03:50:39;;;;;;;3.40;1.30;;;8.00;59.00;;;;;;5003039;28;20014;-72
2021/04/19 03:53:04;;;;;;;3.83;1.25;;;8.00;58.90;;;;;;4986869;28;20046;-72
2021/04/19 03:55:30;;;;;;;2.25;1.27;;;8.00;58.80;;;;;;4986211;28;20037;-72
2021/04/19 03:57:55;;;;;;;2.75;1.25;;;8.00;58.70;;;;;;5017085;28;20042;-72
2021/04/19 04:00:21;;;;;;;2.35;0.98;;;8.00;58.70;;;;;;5003266;28;20025;-72
2021/04/19 04:02:54;;;;;;;3.03;1.30;;;8.00;58.70;;;;;;5015132;28;20327;-72
2021/04/19 04:05:20;;;;;;;2.53;1.15;;;8.00;58.60;;;;;;5022820;28;20223;-72
2021/04/19 04:07:47;;;;;;;3.50;1.33;;;8.00;58.70;;;;;;5024671;28;20006;-72
2021/04/19 04:10:12;;;;;;;2.67;1.15;;;8.00;58.80;;;;;;5020016;28;20010;-72
2021/04/19 04:12:38;;;;;;;3.35;1.33;;;7.90;58.60;;;;;;5006946;28;20038;-71
2021/04/19 04:15:04;;;;;;;5.28;1.20;;;7.90;58.50;;;;;;5019226;28;20022;-72
2021/04/19 04:17:30;;;;;;;3.28;1.35;;;8.00;58.60;;;;;;5003883;28;20014;-72
2021/04/19 04:19:56;;;;;;;2.35;1.20;;;7.90;58.80;;;;;;5006067;28;20021;-72
2021/04/19 04:22:22;;;;;;;3.78;1.40;;;7.90;59.00;;;;;;5023042;28;20034;-72
2021/04/19 04:24:48;;;;;;;4.03;1.40;;;7.80;59.30;;;;;;5019892;28;20002;-72
2021/04/19 04:27:14;;;;;;;2.15;1.15;;;7.80;59.50;;;;;;5013517;28;20232;-72
2021/04/19 04:29:40;;;;;;;2.80;1.20;;;7.80;59.40;;;;;;5024543;28;20010;-72
2021/04/19 04:32:06;;;;;;;4.22;1.40;;;7.80;59.60;;;;;;5019392;28;20068;-72
2021/04/19 04:34:32;;;;;;;2.60;1.42;;;7.70;59.60;;;;;;5009216;28;20069;-72
2021/04/19 04:36:57;;;;;;;3.38;1.02;;;7.80;59.60;;;;;;5004056;28;20069;-72
2021/04/19 04:39:23;;;;;;;2.05;1.30;;;7.80;59.40;;;;;;5010001;28;20021;-71
2021/04/19 04:41:49;;;;;;;1.83;1.10;;;7.80;59.40;;;;;;5003415;28;20045;-71
2021/04/19 04:44:38;;;;;;;2.45;1.20;;;7.80;59.40;;;;;;5019189;28;20007;-72
2021/04/19 04:47:39;;;;;;;4.38;1.08;;;7.80;59.40;;;;;;5003416;28;20316;-71
2021/04/19 04:50:12;;;;;;;2.00;1.00;;;7.80;59.30;;;;;;5002314;28;20018;-71
2021/04/19 04:52:53;;;;;;;5.00;1.35;;;7.80;59.20;;;;;;5021544;28;20021;-71
2021/04/19 04:55:18;;;;;;;2.88;1.48;;;7.90;59.20;;;;;;5019983;28;20030;-71
2021/04/19 04:57:45;;;;;;;2.97;1.30;;;7.90;58.80;;;;;;5021099;28;20092;-71
2021/04/19 05:00:12;;;;;;;3.67;1.75;;;7.90;58.80;;;;;;5004850;28;20021;-71
2021/04/19 05:02:38;;;;;;;4.60;1.10;;;7.90;58.40;;;;;;5004115;28;20018;-71
2021/04/19 05:05:04;;;;;;;2.72;1.30;;;8.00;58.40;;;;;;4994286;28;20010;-71
2021/04/19 05:07:30;;;;;;;2.85;0.85;;;8.00;58.10;;;;;;5017035;28;20080;-71
2021/04/19 05:09:55;;;;;;;2.70;1.20;;;8.10;58.10;;;;;;5021156;28;20196;-72
2021/04/19 05:12:21;;;;;;;1.92;1.10;;;8.10;57.70;;;;;;5017263;28;20191;-71
2021/04/19 05:15:06;;;;;;;4.30;1.30;;;8.20;57.70;;;;;;5019795;28;20033;-71
2021/04/19 05:17:32;;;;;;;2.60;1.13;;;8.30;57.30;;;;;;5022666;28;20346;-73
2021/04/19 05:19:57;;;;;;;3.75;1.35;;;8.30;57.10;;;;;;5022468;28;20049;-71
2021/04/19 05:22:23;;;;;;;1.95;0.80;;;8.30;57.30;;;;;;5022348;28;20104;-72
2021/04/19 05:24:49;;;;;;;2.08;0.90;;;8.30;57.30;;;;;;5021554;28;20276;-72
2021/04/19 05:27:16;;;;;;;2.88;1.00;;;8.40;56.90;;;;;;5020935;28;20045;-71
2021/04/19 05:29:41;;;;;;;3.53;1.48;;;8.40;57.00;;;;;;5021162;28;20017;-71
2021/04/19 05:32:10;;;;;;;2.97;1.35;;;8.40;56.70;;;;;;5005012;28;20014;-71
2021/04/19 05:34:36;;;;;;;2.60;1.30;;;8.40;56.90;;;;;;5021311;28;20010;-71
2021/04/19 05:37:03;;;;;;;2.15;1.20;;;8.50;57.10;;;;;;5022761;28;20027;-71
2021/04/19 05:39:31;;;;;;;5.53;1.35;;;8.50;56.60;;;;;;5019810;28;20037;-71
2021/04/19 05:41:56;;;;;;;3.05;1.40;;;8.60;56.60;;;;;;5021119;28;20030;-71
2021/04/19 05:44:22;;;;;;;2.17;1.05;;;8.60;56.30;;;;;;5022810;28;20069;-72
2021/04/19 05:46:48;;;;;;;1.55;1.00;;;8.70;56.50;;;;;;5026949;28;20014;-72
2021/04/19 05:49:13;;;;;;;3.20;1.60;;;8.70;56.30;;;;;;5015424;28;20220;-71
2021/04/19 05:51:41;;;;;;;2.55;1.30;;;8.70;56.00;;;;;;5037245;28;20014;-71
2021/04/19 05:54:06;;;;;;;3.75;1.25;;;8.70;56.30;;;;;;5033318;28;20006;-71
2021/04/19 05:56:35;;;;;;;3.30;1.00;;;8.80;56.10;;;;;;5016169;28;20056;-71
2021/04/19 05:59:21;;;;;;;4.95;1.10;;;8.90;56.00;;;;;;5024590;28;20073;-71
2021/04/19 06:01:47;;;;;;;3.65;1.38;;;9.10;55.70;;;;;;5025962;28;20014;-71
2021/04/19 06:04:16;;;;;;;6.78;1.30;;;9.10;55.20;;;;;;5013184;28;20017;-72
2021/04/19 06:07:04;;;;;;;3.08;1.00;;;9.10;55.00;;;;;;5034098;28;20017;-72
2021/04/19 06:09:33;;;;;;;4.43;1.08;;;9.30;55.00;;;;;;5030628;28;20029;-72
2021/04/19 06:12:06;;;;;;;3.28;1.40;;;9.40;54.40;;;;;;5027762;28;20025;-72
2021/04/19 06:14:33;;;;;;;3.97;1.30;;;9.40;54.20;;;;;;5022559;28;20029;-72
2021/04/19 06:17:00;;;;;;;2.83;1.02;;;9.40;54.40;;;;;;5026590;28;20018;-72
2021/04/19 06:19:26;;;;;;;3.35;1.25;;;9.60;53.70;;;;;;5009931;28;20014;-72
2021/04/19 06:21:51;;;;;;;3.60;1.60;;;9.60;54.00;;;;;;4996026;28;20022;-72
2021/04/19 06:24:17;;;;;;;4.82;1.73;;;9.80;53.20;;;;;;5030262;28;20022;-71
2021/04/19 06:26:43;;;;;;;3.38;1.40;;;9.80;52.80;;;;;;5023366;28;20124;-72
2021/04/19 06:29:09;;;;;;;7.53;1.38;;;9.90;52.80;;;;;;5028334;28;20018;-72
2021/04/19 06:31:36;;;;;;;5.05;1.20;;;10.00;52.50;;;;;;5030409;28;20025;-71
2021/04/19 06:34:02;;;;;;;5.28;1.30;;;10.10;52.10;;;;;;5015979;28;20011;-72
2021/04/19 06:36:31;;;;;;;2.75;1.10;;;10.30;51.70;;;;;;5026418;28;20029;-72
2021/04/19 06:38:56;;;;;;;3.30;1.20;;;10.40;51.30;;;;;;5030237;28;20024;-72
2021/04/19 06:41:22;;;;;;;2.53;1.30;;;10.50;51.10;;;;;;5013720;28;20017;-71
2021/04/19 06:43:48;;;;;;;4.20;1.30;;;11.00;50.90;;;;;;5011217;28;20050;-72
2021/04/19 06:46:13;;;;;;;2.10;0.70;;;11.90;49.60;;;;;;5031798;28;20028;-74
2021/04/19 06:48:40;;;;;;;2.38;1.25;;;12.50;48.10;;;;;;5026307;28;20026;-72
2021/04/19 06:51:07;;;;;;;4.07;0.93;;;13.10;47.10;;;;;;5009135;28;20033;-72
2021/04/19 06:53:32;;;;;;;3.90;1.00;;;13.80;45.20;;;;;;5008424;28;20017;-72
2021/04/19 06:55:58;;;;;;;1.75;0.82;;;13.70;44.60;;;;;;5008226;28;20026;-72
2021/04/19 06:58:24;;;;;;;3.08;1.17;;;13.90;43.80;;;;;;5028975;28;20110;-72
2021/04/19 07:00:50;;;;;;;2.97;1.25;;;14.20;43.30;;;;;;5032913;28;20063;-72
2021/04/19 07:03:19;;;;;;;8.00;1.20;;;14.00;42.40;;;;;;5031060;28;20042;-73
2021/04/19 07:05:45;;;;;;;4.53;1.20;;;14.10;43.10;;;;;;5014895;28;20068;-72
2021/04/19 07:08:33;;;;;;;4.53;1.45;;;14.10;43.10;;;;;;5034205;28;20021;-72
2021/04/19 07:11:02;;;;;;;3.47;1.17;;;14.10;42.00;;;;;;5024789;28;20254;-72
2021/04/19 07:13:28;;;;;;;3.63;1.20;;;13.70;43.10;;;;;;5016022;28;20044;-72
2021/04/19 07:15:54;;;;;;;1.95;1.10;;;13.90;43.30;;;;;;4987767;28;20081;-73
2021/04/19 07:18:20;;;;;;;3.28;1.27;;;14.10;43.40;;;;;;5010966;28;20030;-74
2021/04/19 07:20:46;;;;;;;3.42;1.25;;;14.10;42.50;;;;;;5002998;28;20017;-71
2021/04/19 07:23:12;;;;;;;4.03;1.13;;;14.20;42.80;;;;;;5007662;28;20061;-72
2021/04/19 07:25:38;;;;;;;4.13;1.00;;;14.30;42.60;;;;;;4961229;28;20040;-72
2021/04/19 07:28:05;;;;;;;5.03;1.20;;;15.20;41.70;;;;;;4982232;28;21067;-72
2021/04/19 07:30:31;;;;;;;3.33;1.45;;;15.00;40.50;;;;;;4994566;28;20306;-73
2021/04/19 07:32:56;;;;;;;4.63;1.20;;;15.00;40.90;;;;;;4962176;28;20235;-73
2021/04/19 07:35:29;;;;;;;3.63;1.30;;;15.40;40.30;;;;;;4922362;28;20025;-73
2021/04/19 07:37:59;;;;;;;5.22;1.23;;;15.50;39.20;;;;;;4914318;28;20253;-72
2021/04/19 07:40:42;;;;;;;3.38;1.20;;;15.50;39.00;;;;;;4904279;28;20025;-71
2021/04/19 07:43:10;;;;;;;2.17;1.15;;;15.60;39.40;;;;;;4943535;28;20036;-72
2021/04/19 07:45:35;;;;;;;3.13;1.42;;;15.90;39.10;;;;;;4967916;28;20304;-73
2021/04/19 07:48:01;;;;;;;2.35;1.00;;;16.10;38.30;;;;;;4950312;28;20099;-73
2021/04/19 07:50:27;;;;;;;3.80;1.40;;;16.30;36.80;;;;;;4975981;28;20876;-73
2021/04/19 07:52:53;;;;;;;3.33;1.33;;;15.80;37.20;;;;;;4949210;28;21565;-72
2021/04/19 07:55:22;;;;;;;2.40;1.08;;;15.90;37.70;;;;;;4938230;28;20484;-72
2021/04/19 07:57:48;;;;;;;0.93;0.82;;;16.20;37.70;;;;;;4953633;28;20045;-72
2021/04/19 08:00:37;;;;;;;4.00;1.58;;;16.70;36.20;;;;;;4960428;28;20026;-74
2021/04/19 08:03:25;;;;;;;3.20;1.23;;;16.80;36.60;;;;;;4927623;28;20202;-73
2021/04/19 08:05:51;;;;;;;2.72;1.20;;;17.50;35.30;;;;;;4952110;28;20029;-72
2021/04/19 08:08:31;;;;;;;2.17;1.10;;;17.10;34.80;;;;;;4943269;28;20437;-73
2021/04/19 08:11:10;;;;;;;2.72;1.15;;;17.50;35.40;;;;;;4944257;28;20381;-72
2021/04/19 08:13:38;;;;;;;3.15;1.00;;;17.80;34.00;;;;;;4954577;28;20017;-73
2021/04/19 08:16:24;;;;;;;2.13;1.00;;;17.90;33.80;;;;;;4929742;28;20297;-72
2021/04/19 08:18:50;;;;;;;3.08;1.40;;;18.50;33.80;;;;;;4964522;28;20759;-73
2021/04/19 08:21:28;;;;;;;2.03;1.00;;;18.10;32.40;;;;;;4945089;28;20479;-72
2021/04/19 08:23:54;;;;;;;4.75;1.10;;;18.20;33.50;;;;;;4937686;28;20379;-73
2021/04/19 08:26:20;;;;;;;4.95;1.20;;;17.80;33.10;;;;;;4954658;28;20021;-74
2021/04/19 08:28:47;;;;;;;2.03;1.20;;;17.60;33.30;;;;;;4962751;28;20018;-72
2021/04/19 08:31:13;;;;;;;2.20;1.00;;;17.20;33.70;;;;;;4959410;28;20337;-73
2021/04/19 08:33:39;;;;;;;4.35;1.20;;;17.60;33.80;;;;;;4949806;28;20136;-74
2021/04/19 08:36:14;;;;;;;3.22;1.10;;;17.50;34.40;;;;;;4928302;28;21415;-72
2021/04/19 08:38:41;;;;;;;4.68;1.40;;;17.60;34.20;;;;;;4950898;28;20029;-74
2021/04/19 08:41:06;;;;;;;4.68;1.55;;;17.50;34.30;;;;;;4935854;28;20445;-74
2021/04/19 08:43:34;;;;;;;3.50;1.60;;;17.80;34.50;;;;;;4936625;28;21794;-75
2021/04/19 08:46:01;;;;;;;3.47;1.00;;;18.20;33.40;;;;;;4949058;28;21354;-75
2021/04/19 08:48:27;;;;;;;2.10;1.17;;;18.10;32.80;;;;;;4927457;28;20048;-74
2021/04/19 08:50:53;;;;;;;3.08;1.08;;;18.10;33.70;;;;;;4934404;28;20551;-76
2021/04/19 08:53:19;;;;;;;1.45;0.80;;;18.40;33.80;;;;;;4932133;28;20025;-75
2021/04/19 08:55:45;;;;;;;3.40;1.20;;;18.70;31.10;;;;;;4944412;28;20065;-74
2021/04/19 08:58:16;;;;;;;2.50;1.15;;;18.60;31.60;;;;;;4930264;28;20565;-73
2021/04/19 09:00:46;;;;;;;2.10;1.30;;;19.20;31.40;;;;;;4963355;28;20030;-74
2021/04/19 09:03:15;;;;;;;3.80;1.08;;;19.30;30.70;;;;;;4953820;28;20033;-72
2021/04/19 09:05:41;;;;;;;2.95;1.10;;;19.30;30.00;;;;;;4913620;28;20128;-74
2021/04/19 09:08:08;;;;;;;4.47;1.20;;;19.50;29.80;;;;;;4945072;28;20108;-72
2021/04/19 09:11:10;;;;;;;5.75;1.10;;;19.90;29.30;;;;;;4949068;28;20464;-72
2021/04/19 09:13:42;;;;;;;4.50;1.30;;;19.30;29.30;;;;;;4931801;28;20028;-74
2021/04/19 09:16:20;;;;;;;3.85;1.10;;;19.10;30.10;;;;;;4960994;28;20286;-73
2021/04/19 09:18:56;;;;;;;3.50;1.33;;;19.10;29.90;;;;;;4979371;28;20282;-73
2021/04/19 09:21:42;;;;;;;5.93;1.38;;;19.30;30.00;;;;;;4973151;28;20037;-75
2021/04/19 09:24:13;;;;;;;2.72;1.40;;;19.50;30.00;;;;;;4989939;28;20117;-75
2021/04/19 09:26:54;;;;;;;2.33;1.00;;;19.80;29.60;;;;;;4957887;28;20018;-75
2021/04/19 09:29:27;;;;;;;3.78;1.35;;;19.40;29.50;;;;;;4993267;28;20018;-77
2021/04/19 09:31:55;;;;;;;2.83;1.30;;;19.70;29.80;;;;;;4985612;28;20318;-77
2021/04/19 09:34:38;;;;;;;3.00;1.08;;;19.80;29.20;;;;;;4974213;28;20237;-77
2021/04/19 09:37:04;;;;;;;5.57;1.13;;;19.90;30.00;;;;;;4985201;28;20229;-78
2021/04/19 09:39:42;;;;;;;2.13;1.05;;;20.20;29.00;;;;;;4988809;28;20758;-78
2021/04/19 09:42:08;;;;;;;3.78;1.20;;;20.20;28.20;;;;;;4971248;28;20292;-77
2021/04/19 09:44:34;;;;;;;2.40;1.10;;;20.30;27.80;;;;;;4965963;28;20018;-77
2021/04/19 09:46:59;;;;;;;2.70;1.40;;;20.50;27.20;;;;;;4945771;28;21179;-77
2021/04/19 09:49:25;;;;;;;3.88;1.20;;;20.50;27.00;;;;;;4960771;28;21027;-78
2021/04/19 09:51:51;;;;;;;2.72;1.10;;;20.50;27.30;;;;;;4949463;28;20671;-76
2021/04/19 09:54:22;;;;;;;3.08;1.05;;;20.40;26.60;;;;;;4958265;28;21436;-76
2021/04/19 09:56:55;;;;;;;0.98;0.70;;;20.30;27.20;;;;;;4942131;28;20033;-76
2021/04/19 09:59:22;;;;;;;1.52;0.80;;;21.70;26.00;;;;;;4929232;28;20156;-78
2021/04/19 10:01:49;;;;;;;2.58;0.93;;;22.50;24.80;;;;;;4931998;28;20347;-78
2021/04/19 10:04:15;;;;;;;2.42;1.40;;;23.00;24.30;;;;;;4930642;28;20116;-78
2021/04/19 10:06:52;;;;;;;5.25;1.10;;;23.20;23.40;;;;;;4922072;28;20321;-79
2021/04/19 10:09:25;;;;;;;1.92;1.02;;;23.10;23.40;;;;;;4930467;28;20256;-79
2021/04/19 10:12:13;;;;;;;1.88;0.98;;;23.20;23.20;;;;;;4939789;28;20429;-78
2021/04/19 10:14:39;;;;;;;2.38;1.00;;;23.60;23.20;;;;;;4911946;28;20401;-78
2021/04/19 10:17:18;;;;;;;1.55;0.93;;;23.60;23.10;;;;;;4894990;28;20672;-78
2021/04/19 10:19:44;;;;;;;2.78;1.13;;;23.80;21.70;;;;;;4914251;28;20441;-78
2021/04/19 10:22:11;;;;;;;1.17;0.80;;;23.30;22.40;;;;;;4921476;28;20026;-80
2021/04/19 10:24:52;;;;;;;2.58;1.08;;;23.30;21.50;;;;;;4924528;28;20927;-77
2021/04/19 10:27:28;;;;;;;5.82;1.08;;;23.10;22.10;;;;;;4930497;28;20406;-80
2021/04/19 10:29:55;;;;;;;2.80;0.80;;;23.30;21.80;;;;;;4932158;28;20634;-79
2021/04/19 10:32:30;;;;;;;2.20;1.10;;;23.50;21.90;;;;;;4945503;28;20230;-78
2021/04/19 10:34:56;;;;;;;1.23;0.85;;;23.60;21.60;;;;;;4935981;28;20037;-80
2021/04/19 10:37:22;;;;;;;2.63;1.20;;;23.20;21.80;;;;;;4902587;28;20137;-79
2021/04/19 10:39:48;;;;;;;1.55;0.80;;;23.30;22.20;;;;;;4943053;28;20120;-79
2021/04/19 10:42:27;;;;;;;2.00;0.90;;;23.90;22.00;;;;;;4920799;28;20322;-77
2021/04/19 10:44:55;;;;;;;1.88;1.00;;;23.90;20.90;;;;;;4936879;28;20014;-80
2021/04/19 10:47:28;;;;;;;2.75;1.10;;;23.90;21.60;;;;;;4925760;28;20636;-79
2021/04/19 10:49:54;;;;;;;3.58;0.90;;;23.40;21.90;;;;;;4927593;28;20461;-76
2021/04/19 10:52:19;;;;;;;2.80;0.88;;;23.20;22.20;;;;;;4937963;28;20037;-77
2021/04/19 10:54:45;;;;;;;3.45;1.20;;;22.70;22.20;;;;;;4951804;28;20140;-77
2021/04/19 10:57:27;;;;;;;2.20;1.13;;;22.40;22.50;;;;;;4933345;28;20038;-77
2021/04/19 10:59:53;;;;;;;1.70;0.90;;;22.10;22.60;;;;;;4931908;28;20122;-77
2021/04/19 11:02:25;;;;;;;1.58;0.70;;;22.50;23.30;;;;;;4925239;28;21901;-79
2021/04/19 11:04:51;;;;;;;3.17;1.13;;;21.80;22.40;;;;;;4911904;28;20294;-77
2021/04/19 11:07:36;;;;;;;2.63;1.10;;;20.70;23.70;;;;;;4905148;28;20026;-77
2021/04/19 11:10:16;;;;;;;3.45;0.98;;;20.50;24.40;;;;;;4925073;28;20165;-77
2021/04/19 11:12:53;;;;;;;3.88;1.40;;;20.40;24.30;;;;;;4923778;28;20174;-77
2021/04/19 11:15:21;;;;;;;1.92;0.90;;;19.90;24.00;;;;;;4909183;28;20163;-78
2021/04/19 11:17:47;;;;;;;2.47;1.05;;;20.00;24.40;;;;;;4896159;28;21477;-78
2021/04/19 11:20:22;;;;;;;1.52;0.80;;;20.10;25.20;;;;;;4883437;28;20018;-79
2021/04/19 11:22:48;;;;;;;2.33;0.82;;;20.00;24.80;;;;;;4910597;28;20692;-78
2021/04/19 11:25:27;;;;;;;1.55;1.05;;;19.90;24.40;;;;;;4906638;28;20142;-74
2021/04/19 11:28:13;;;;;;;2.60;0.82;;;19.80;24.80;;;;;;4921358;28;20820;-77
2021/04/19 11:30:39;;;;;;;3.22;1.13;;;19.80;25.40;;;;;;4922796;28;20374;-77
2021/04/19 11:33:06;;;;;;;2.13;0.80;;;19.80;25.30;;;;;;4892767;28;20345;-76
2021/04/19 11:35:45;;;;;;;2.13;0.90;;;19.80;25.10;;;;;;4929180;28;21065;-79
2021/04/19 11:38:17;;;;;;;2.42;1.00;;;19.70;24.80;;;;;;4895976;28;20622;-78
2021/04/19 11:40:45;;;;;;;2.70;1.00;;;19.70;25.30;;;;;;4903047;28;20130;-75
2021/04/19 11:43:17;;;;;;;1.92;1.02;;;19.60;24.80;;;;;;4924474;28;20548;-75
2021/04/19 11:45:43;;;;;;;1.95;0.90;;;19.50;24.80;;;;;;4928880;28;20160;-77
2021/04/19 11:48:13;;;;;;;3.55;1.20;;;19.60;25.20;;;;;;4910256;28;20088;-78
2021/04/19 11:50:39;;;;;;;3.65;1.45;;;19.60;29.00;;;;;;4917920;28;20221;-78
2021/04/19 11:53:05;;;;;;;3.40;1.10;;;19.30;31.20;;;;;;4948121;28;20687;-75
2021/04/19 11:55:31;;;;;;;2.08;1.00;;;18.90;34.00;;;;;;4941297;28;20033;-79
2021/04/19 11:57:57;;;;;;;3.15;1.00;;;18.40;35.70;;;;;;4949248;28;20046;-75
2021/04/19 12:00:22;;;;;;;4.63;2.30;;;18.30;36.60;;;;;;4989749;28;20424;-76
2021/04/19 12:02:48;;;;;;;3.50;1.75;;;18.20;36.80;;;;;;4939922;28;20127;-75
2021/04/19 12:05:14;;;;;;;3.22;1.23;;;18.30;36.10;;;;;;4961969;28;20022;-77
2021/04/19 12:07:40;;;;;;;11.25;3.15;;;18.30;32.60;;;;;;4939937;28;20646;-79
2021/04/19 12:10:07;;;;;;;4.90;1.70;;;18.50;34.20;;;;;;4942294;28;20040;-79
2021/04/19 12:12:32;;;;;;;4.47;1.70;;;18.40;36.00;;;;;;4937805;28;20462;-74
2021/04/19 12:14:58;;;;;;;2.05;0.93;;;18.30;36.80;;;;;;4917086;28;20215;-75
2021/04/19 12:17:24;;;;;;;2.60;1.05;;;18.20;37.30;;;;;;4937802;28;20025;-73
2021/04/19 12:19:49;;;;;;;3.38;1.10;;;18.20;37.30;;;;;;4955318;28;20124;-73
2021/04/19 12:22:15;;;;;;;1.02;0.75;;;18.40;35.90;;;;;;4931483;28;20248;-74
2021/04/19 12:24:40;;;;;;;3.35;1.23;;;18.50;35.50;;;;;;4921722;28;20365;-73
2021/04/19 12:27:06;;;;;;;2.47;1.05;;;18.50;38.20;;;;;;4934203;28;20185;-74
2021/04/19 12:29:32;;;;;;;3.55;1.13;;;18.00;40.30;;;;;;4943549;28;20263;-75
2021/04/19 12:31:58;;;;;;;4.97;1.95;;;17.90;40.70;;;;;;4915670;28;21633;-74
2021/04/19 12:34:24;;;;;;;2.78;1.17;;;17.60;41.80;;;;;;4939009;28;20028;-75
2021/04/19 12:36:54;;;;;;;4.47;1.30;;;17.50;41.50;;;;;;4956784;28;20018;-73
2021/04/19 12:39:20;;;;;;;1.55;0.90;;;17.50;39.90;;;;;;4932803;28;20135;-75
2021/04/19 12:41:45;;;;;;;4.13;2.10;;;17.70;39.30;;;;;;4932903;28;20654;-74
2021/04/19 12:44:11;;;;;;;5.60;1.70;;;17.80;40.60;;;;;;4956196;28;20124;-74
2021/04/19 12:46:37;;;;;;;2.78;1.33;;;17.70;40.00;;;;;;4937161;28;20025;-74
2021/04/19 12:49:02;;;;;;;5.13;1.63;;;17.70;40.60;;;;;;4935705;28;20025;-75
2021/04/19 12:51:28;;;;;;;2.53;1.25;;;17.90;41.70;;;;;;4946911;28;20050;-75
2021/04/19 12:53:54;;;;;;;4.57;1.30;;;17.80;40.00;;;;;;4935369;28;20121;-75
2021/04/19 12:56:20;;;;;;;11.15;2.50;;;17.80;39.30;;;;;;4986870;28;20252;-76
2021/04/19 12:58:45;;;;;;;3.97;1.48;;;17.50;40.70;;;;;;4950485;28;20622;-76
2021/04/19 13:01:11;;;;;;;3.17;1.17;;;17.30;43.50;;;;;;4942129;28;20019;-76